sensor_id;sensor_type;location;lat;lon;timestamp;pressure;altitude;pressure_sealevel;temperature;humidity
73558;BME280;61829;53.286;10.434;2023-04-19T00:00:45;102859.56;;;4.97;67.60
73558;BME280;61829;53.286;10.434;2023-04-19T00:03:16;102871.13;;;4.97;67.88
73558;BME280;61829;53.286;10.434;2023-04-19T00:05:42;102865.88;;;4.95;68.74
73558;BME280;61829;53.286;10.434;2023-04-19T00:08:08;102866.16;;;4.91;68.72
73558;BME280;61829;53.286;10.434;2023-04-19T00:10:34;102867.31;;;4.87;68.97
73558;BME280;61829;53.286;10.434;2023-04-19T00:13:00;102866.66;;;4.83;69.05
73558;BME280;61829;53.286;10.434;2023-04-19T00:15:26;102861.31;;;4.83;69.31
73558;BME280;61829;53.286;10.434;2023-04-19T00:17:52;102863.25;;;4.81;69.53
73558;BME280;61829;53.286;10.434;2023-04-19T00:20:19;102860.72;;;4.78;69.61
73558;BME280;61829;53.286;10.434;2023-04-19T00:22:45;102855.38;;;4.78;70.03
73558;BME280;61829;53.286;10.434;2023-04-19T00:25:11;102866.38;;;4.73;70.40
73558;BME280;61829;53.286;10.434;2023-04-19T00:27:37;102862.28;;;4.68;70.57
73558;BME280;61829;53.286;10.434;2023-04-19T00:30:03;102859.88;;;4.63;71.22
73558;BME280;61829;53.286;10.434;2023-04-19T00:32:29;102857.34;;;4.62;71.07
73558;BME280;61829;53.286;10.434;2023-04-19T00:34:54;102849.53;;;4.59;71.02
73558;BME280;61829;53.286;10.434;2023-04-19T00:37:20;102855.59;;;4.61;71.01
73558;BME280;61829;53.286;10.434;2023-04-19T00:39:49;102852.28;;;4.57;71.43
73558;BME280;61829;53.286;10.434;2023-04-19T00:42:15;102858.66;;;4.55;71.47
73558;BME280;61829;53.286;10.434;2023-04-19T00:44:41;102856.94;;;4.54;71.59
73558;BME280;61829;53.286;10.434;2023-04-19T00:47:06;102855.41;;;4.49;71.80
73558;BME280;61829;53.286;10.434;2023-04-19T00:49:33;102862.56;;;4.49;71.45
73558;BME280;61829;53.286;10.434;2023-04-19T00:52:01;102855.03;;;4.41;71.92
73558;BME280;61829;53.286;10.434;2023-04-19T00:54:28;102852.47;;;4.40;72.61
73558;BME280;61829;53.286;10.434;2023-04-19T00:56:54;102849.03;;;4.38;72.30
73558;BME280;61829;53.286;10.434;2023-04-19T00:59:21;102848.44;;;4.33;73.00
73558;BME280;61829;53.286;10.434;2023-04-19T01:01:47;102853.03;;;4.31;73.38
73558;BME280;61829;53.286;10.434;2023-04-19T01:04:14;102856.94;;;4.25;73.43
73558;BME280;61829;53.286;10.434;2023-04-19T01:06:40;102851.00;;;4.20;74.21
73558;BME280;61829;53.286;10.434;2023-04-19T01:09:06;102844.06;;;4.17;73.84
73558;BME280;61829;53.286;10.434;2023-04-19T01:11:33;102851.66;;;4.09;74.42
73558;BME280;61829;53.286;10.434;2023-04-19T01:13:59;102855.38;;;4.07;74.60
73558;BME280;61829;53.286;10.434;2023-04-19T01:16:26;102854.59;;;4.04;74.40
73558;BME280;61829;53.286;10.434;2023-04-19T01:18:52;102847.66;;;4.02;74.67
73558;BME280;61829;53.286;10.434;2023-04-19T01:21:18;102852.41;;;3.97;74.69
73558;BME280;61829;53.286;10.434;2023-04-19T01:23:44;102851.56;;;3.96;74.75
73558;BME280;61829;53.286;10.434;2023-04-19T01:26:12;102854.31;;;3.95;74.10
73558;BME280;61829;53.286;10.434;2023-04-19T01:28:38;102850.00;;;3.92;73.85
73558;BME280;61829;53.286;10.434;2023-04-19T01:31:04;102852.00;;;3.89;74.07
73558;BME280;61829;53.286;10.434;2023-04-19T01:33:31;102849.53;;;3.86;74.11
73558;BME280;61829;53.286;10.434;2023-04-19T01:35:56;102846.09;;;3.83;73.63
73558;BME280;61829;53.286;10.434;2023-04-19T01:38:22;102845.50;;;3.78;73.73
73558;BME280;61829;53.286;10.434;2023-04-19T01:40:48;102846.53;;;3.76;73.51
73558;BME280;61829;53.286;10.434;2023-04-19T01:43:16;102848.44;;;3.74;73.79
73558;BME280;61829;53.286;10.434;2023-04-19T01:45:43;102845.84;;;3.72;73.69
73558;BME280;61829;53.286;10.434;2023-04-19T01:48:08;102843.28;;;3.71;73.44
73558;BME280;61829;53.286;10.434;2023-04-19T01:50:34;102839.84;;;3.69;72.89
73558;BME280;61829;53.286;10.434;2023-04-19T01:53:00;102841.75;;;3.67;73.38
73558;BME280;61829;53.286;10.434;2023-04-19T01:55:26;102837.38;;;3.66;72.83
73558;BME280;61829;53.286;10.434;2023-04-19T01:57:52;102839.25;;;3.64;72.83
73558;BME280;61829;53.286;10.434;2023-04-19T02:00:19;102836.50;;;3.65;72.59
73558;BME280;61829;53.286;10.434;2023-04-19T02:02:45;102835.63;;;3.65;72.32
73558;BME280;61829;53.286;10.434;2023-04-19T02:05:11;102833.94;;;3.64;72.18
73558;BME280;61829;53.286;10.434;2023-04-19T02:07:37;102827.75;;;3.63;72.54
73558;BME280;61829;53.286;10.434;2023-04-19T02:10:03;102829.56;;;3.63;72.99
73558;BME280;61829;53.286;10.434;2023-04-19T02:12:31;102830.59;;;3.60;72.57
73558;BME280;61829;53.286;10.434;2023-04-19T02:14:58;102836.09;;;3.57;72.85
73558;BME280;61829;53.286;10.434;2023-04-19T02:17:27;102835.41;;;3.53;72.96
73558;BME280;61829;53.286;10.434;2023-04-19T02:19:52;102827.50;;;3.52;73.16
73558;BME280;61829;53.286;10.434;2023-04-19T02:22:19;102833.09;;;3.47;73.90
73558;BME280;61829;53.286;10.434;2023-04-19T02:24:45;102828.06;;;3.43;73.96
73558;BME280;61829;53.286;10.434;2023-04-19T02:27:12;102826.44;;;3.40;74.09
73558;BME280;61829;53.286;10.434;2023-04-19T02:29:38;102830.97;;;3.38;74.15
73558;BME280;61829;53.286;10.434;2023-04-19T02:32:04;102830.19;;;3.36;73.92
73558;BME280;61829;53.286;10.434;2023-04-19T02:34:33;102824.28;;;3.31;73.66
73558;BME280;61829;53.286;10.434;2023-04-19T02:36:59;102825.41;;;3.27;74.29
73558;BME280;61829;53.286;10.434;2023-04-19T02:39:25;102826.50;;;3.23;74.41
73558;BME280;61829;53.286;10.434;2023-04-19T02:41:52;102828.44;;;3.21;74.02
73558;BME280;61829;53.286;10.434;2023-04-19T02:44:17;102824.91;;;3.20;73.90
73558;BME280;61829;53.286;10.434;2023-04-19T02:46:51;102819.75;;;3.17;74.07
73558;BME280;61829;53.286;10.434;2023-04-19T02:49:17;102817.25;;;3.14;74.19
73558;BME280;61829;53.286;10.434;2023-04-19T02:51:43;102815.72;;;3.10;74.55
73558;BME280;61829;53.286;10.434;2023-04-19T02:54:13;102820.19;;;3.09;74.49
73558;BME280;61829;53.286;10.434;2023-04-19T02:56:39;102815.78;;;3.08;74.51
73558;BME280;61829;53.286;10.434;2023-04-19T03:02:14;102813.28;;;3.05;74.24
73558;BME280;61829;53.286;10.434;2023-04-19T03:04:40;102808.75;;;3.07;73.94
73558;BME280;61829;53.286;10.434;2023-04-19T03:07:08;102812.81;;;3.14;73.82
73558;BME280;61829;53.286;10.434;2023-04-19T03:09:34;102807.66;;;3.11;73.69
73558;BME280;61829;53.286;10.434;2023-04-19T03:12:00;102810.13;;;3.14;74.26
73558;BME280;61829;53.286;10.434;2023-04-19T03:14:25;102796.88;;;3.13;74.29
73558;BME280;61829;53.286;10.434;2023-04-19T03:16:52;102796.81;;;3.14;74.68
73558;BME280;61829;53.286;10.434;2023-04-19T03:19:17;102797.84;;;3.12;74.07
73558;BME280;61829;53.286;10.434;2023-04-19T03:21:43;102798.78;;;3.11;74.24
73558;BME280;61829;53.286;10.434;2023-04-19T03:24:09;102798.09;;;3.07;74.40
73558;BME280;61829;53.286;10.434;2023-04-19T03:26:35;102797.31;;;3.05;74.49
73558;BME280;61829;53.286;10.434;2023-04-19T03:29:00;102793.03;;;3.03;75.28
73558;BME280;61829;53.286;10.434;2023-04-19T03:31:26;102790.53;;;3.00;75.36
73558;BME280;61829;53.286;10.434;2023-04-19T03:34:23;102787.19;;;2.96;75.23
73558;BME280;61829;53.286;10.434;2023-04-19T03:36:52;102790.03;;;2.93;75.86
73558;BME280;61829;53.286;10.434;2023-04-19T03:39:18;102785.84;;;2.89;75.73
73558;BME280;61829;53.286;10.434;2023-04-19T03:41:43;102783.31;;;2.86;76.27
73558;BME280;61829;53.286;10.434;2023-04-19T03:44:09;102784.44;;;2.82;76.22
73558;BME280;61829;53.286;10.434;2023-04-19T03:46:35;102780.16;;;2.79;76.47
73558;BME280;61829;53.286;10.434;2023-04-19T03:49:01;102789.28;;;2.75;77.30
73558;BME280;61829;53.286;10.434;2023-04-19T03:51:27;102771.66;;;2.73;76.90
73558;BME280;61829;53.286;10.434;2023-04-19T03:53:52;102777.16;;;2.69;77.22
73558;BME280;61829;53.286;10.434;2023-04-19T03:56:18;102773.78;;;2.66;77.49
73558;BME280;61829;53.286;10.434;2023-04-19T03:58:44;102778.44;;;2.62;77.40
73558;BME280;61829;53.286;10.434;2023-04-19T04:01:21;102776.03;;;2.58;78.27
73558;BME280;61829;53.286;10.434;2023-04-19T04:03:47;102777.75;;;2.59;78.28
73558;BME280;61829;53.286;10.434;2023-04-19T04:06:13;102779.72;;;2.55;78.55
73558;BME280;61829;53.286;10.434;2023-04-19T04:08:38;102775.25;;;2.56;78.46
73558;BME280;61829;53.286;10.434;2023-04-19T04:11:04;102773.63;;;2.53;78.32
73558;BME280;61829;53.286;10.434;2023-04-19T04:13:30;102778.78;;;2.56;79.30
73558;BME280;61829;53.286;10.434;2023-04-19T04:15:56;102777.06;;;2.55;79.21
73558;BME280;61829;53.286;10.434;2023-04-19T04:18:22;102777.06;;;2.55;79.46
73558;BME280;61829;53.286;10.434;2023-04-19T04:20:48;102778.78;;;2.56;79.62
73558;BME280;61829;53.286;10.434;2023-04-19T04:23:13;102770.78;;;2.56;79.79
73558;BME280;61829;53.286;10.434;2023-04-19T04:25:39;102769.84;;;2.57;80.19
73558;BME280;61829;53.286;10.434;2023-04-19T04:28:07;102774.25;;;2.58;80.38
73558;BME280;61829;53.286;10.434;2023-04-19T04:30:33;102768.06;;;2.58;80.31
73558;BME280;61829;53.286;10.434;2023-04-19T04:33:00;102765.31;;;2.59;80.19
73558;BME280;61829;53.286;10.434;2023-04-19T04:35:26;102768.81;;;2.60;80.61
73558;BME280;61829;53.286;10.434;2023-04-19T04:37:53;102765.97;;;2.63;81.37
73558;BME280;61829;53.286;10.434;2023-04-19T04:40:19;102762.28;;;2.65;80.52
73558;BME280;61829;53.286;10.434;2023-04-19T04:42:45;102752.34;;;2.69;80.99
73558;BME280;61829;53.286;10.434;2023-04-19T04:45:11;102764.13;;;2.81;80.95
73558;BME280;61829;53.286;10.434;2023-04-19T04:47:37;102762.03;;;2.86;81.23
73558;BME280;61829;53.286;10.434;2023-04-19T04:50:03;102767.84;;;3.08;80.75
73558;BME280;61829;53.286;10.434;2023-04-19T04:52:29;102766.31;;;3.20;80.18
73558;BME280;61829;53.286;10.434;2023-04-19T04:54:55;102775.97;;;3.37;80.69
73558;BME280;61829;53.286;10.434;2023-04-19T04:57:21;102768.44;;;3.59;80.19
73558;BME280;61829;53.286;10.434;2023-04-19T04:59:46;102773.03;;;3.86;78.64
73558;BME280;61829;53.286;10.434;2023-04-19T05:02:15;102771.53;;;4.39;77.76
73558;BME280;61829;53.286;10.434;2023-04-19T05:04:41;102762.84;;;4.91;75.20
73558;BME280;61829;53.286;10.434;2023-04-19T05:07:07;102761.94;;;5.45;72.88
73558;BME280;61829;53.286;10.434;2023-04-19T05:09:36;102762.78;;;5.98;70.90
73558;BME280;61829;53.286;10.434;2023-04-19T05:12:01;102757.91;;;6.55;68.64
73558;BME280;61829;53.286;10.434;2023-04-19T05:14:27;102752.16;;;6.96;66.79
73558;BME280;61829;53.286;10.434;2023-04-19T05:16:53;102754.94;;;7.42;65.40
73558;BME280;61829;53.286;10.434;2023-04-19T05:19:19;102754.78;;;7.68;63.86
73558;BME280;61829;53.286;10.434;2023-04-19T05:21:44;102755.78;;;8.01;62.73
73558;BME280;61829;53.286;10.434;2023-04-19T05:24:10;102762.06;;;8.24;62.12
73558;BME280;61829;53.286;10.434;2023-04-19T05:26:36;102749.00;;;8.42;61.25
73558;BME280;61829;53.286;10.434;2023-04-19T05:29:02;102752.50;;;8.76;59.71
73558;BME280;61829;53.286;10.434;2023-04-19T05:31:28;102748.38;;;9.04;58.99
73558;BME280;61829;53.286;10.434;2023-04-19T05:33:54;102745.34;;;9.30;57.75
73558;BME280;61829;53.286;10.434;2023-04-19T05:36:20;102747.56;;;9.57;57.26
73558;BME280;61829;53.286;10.434;2023-04-19T05:38:55;102751.47;;;9.74;56.23
73558;BME280;61829;53.286;10.434;2023-04-19T05:41:21;102750.94;;;9.59;56.33
73558;BME280;61829;53.286;10.434;2023-04-19T05:43:46;102752.75;;;9.79;55.66
73558;BME280;61829;53.286;10.434;2023-04-19T05:46:12;102747.94;;;10.04;56.02
73558;BME280;61829;53.286;10.434;2023-04-19T05:48:38;102740.56;;;10.27;55.15
73558;BME280;61829;53.286;10.434;2023-04-19T05:51:05;102737.94;;;10.46;54.51
73558;BME280;61829;53.286;10.434;2023-04-19T05:53:31;102734.47;;;10.65;53.33
73558;BME280;61829;53.286;10.434;2023-04-19T05:55:56;102741.75;;;10.84;53.29
73558;BME280;61829;53.286;10.434;2023-04-19T05:58:22;102738.91;;;10.86;52.61
73558;BME280;61829;53.286;10.434;2023-04-19T06:00:50;102736.97;;;10.47;53.08
73558;BME280;61829;53.286;10.434;2023-04-19T06:03:16;102730.16;;;10.53;53.38
73558;BME280;61829;53.286;10.434;2023-04-19T06:05:41;102733.16;;;10.60;52.65
73558;BME280;61829;53.286;10.434;2023-04-19T06:08:08;102729.34;;;10.72;52.52
73558;BME280;61829;53.286;10.434;2023-04-19T06:10:35;102725.56;;;10.94;52.55
73558;BME280;61829;53.286;10.434;2023-04-19T06:13:02;102726.81;;;11.48;50.58
73558;BME280;61829;53.286;10.434;2023-04-19T06:15:28;102729.75;;;11.84;48.92
73558;BME280;61829;53.286;10.434;2023-04-19T06:17:55;102723.50;;;11.74;49.03
73558;BME280;61829;53.286;10.434;2023-04-19T06:20:21;102720.63;;;11.85;48.59
73558;BME280;61829;53.286;10.434;2023-04-19T06:22:47;102727.09;;;12.11;48.05
73558;BME280;61829;53.286;10.434;2023-04-19T06:25:13;102715.31;;;12.12;47.84
73558;BME280;61829;53.286;10.434;2023-04-19T06:27:39;102732.00;;;11.98;48.01
73558;BME280;61829;53.286;10.434;2023-04-19T06:30:06;102726.38;;;12.19;47.24
73558;BME280;61829;53.286;10.434;2023-04-19T06:32:32;102721.25;;;12.26;47.28
73558;BME280;61829;53.286;10.434;2023-04-19T06:34:58;102731.84;;;12.37;46.21
73558;BME280;61829;53.286;10.434;2023-04-19T06:37:24;102726.19;;;11.93;47.36
73558;BME280;61829;53.286;10.434;2023-04-19T06:39:49;102718.69;;;11.87;47.87
73558;BME280;61829;53.286;10.434;2023-04-19T06:42:15;102717.53;;;11.89;47.62
73558;BME280;61829;53.286;10.434;2023-04-19T06:44:44;102717.25;;;11.73;47.78
73558;BME280;61829;53.286;10.434;2023-04-19T06:47:10;102709.13;;;11.93;48.11
73558;BME280;61829;53.286;10.434;2023-04-19T06:49:35;102713.66;;;11.82;47.13
73558;BME280;61829;53.286;10.434;2023-04-19T06:52:01;102702.84;;;12.02;47.10
73558;BME280;61829;53.286;10.434;2023-04-19T06:54:27;102711.91;;;11.54;46.71
73558;BME280;61829;53.286;10.434;2023-04-19T06:56:53;102709.66;;;11.30;48.55
73558;BME280;61829;53.286;10.434;2023-04-19T06:59:19;102706.66;;;11.23;48.08
73558;BME280;61829;53.286;10.434;2023-04-19T07:01:45;102709.53;;;11.41;48.17
73558;BME280;61829;53.286;10.434;2023-04-19T07:04:12;102712.88;;;11.62;48.12
73558;BME280;61829;53.286;10.434;2023-04-19T07:06:39;102697.38;;;11.55;47.59
73558;BME280;61829;53.286;10.434;2023-04-19T07:09:06;102704.97;;;11.32;48.10
73558;BME280;61829;53.286;10.434;2023-04-19T07:11:32;102693.47;;;11.30;47.63
73558;BME280;61829;53.286;10.434;2023-04-19T07:13:58;102686.75;;;11.43;48.29
73558;BME280;61829;53.286;10.434;2023-04-19T07:16:26;102693.53;;;11.86;47.73
73558;BME280;61829;53.286;10.434;2023-04-19T07:18:52;102690.53;;;11.70;46.33
73558;BME280;61829;53.286;10.434;2023-04-19T07:21:18;102689.69;;;11.89;47.15
73558;BME280;61829;53.286;10.434;2023-04-19T07:23:44;102690.44;;;12.09;46.13
73558;BME280;61829;53.286;10.434;2023-04-19T07:26:10;102689.69;;;11.89;45.26
73558;BME280;61829;53.286;10.434;2023-04-19T07:28:35;102699.59;;;11.88;45.50
73558;BME280;61829;53.286;10.434;2023-04-19T07:31:03;102680.81;;;11.97;45.09
73558;BME280;61829;53.286;10.434;2023-04-19T07:33:28;102688.22;;;12.22;44.32
73558;BME280;61829;53.286;10.434;2023-04-19T07:35:54;102672.75;;;12.42;45.10
73558;BME280;61829;53.286;10.434;2023-04-19T07:38:21;102667.66;;;12.39;43.70
73558;BME280;61829;53.286;10.434;2023-04-19T07:40:47;102669.69;;;12.37;45.52
73558;BME280;61829;53.286;10.434;2023-04-19T07:43:13;102673.25;;;12.28;43.02
73558;BME280;61829;53.286;10.434;2023-04-19T07:45:39;102664.63;;;12.24;43.64
73558;BME280;61829;53.286;10.434;2023-04-19T07:48:05;102680.31;;;12.39;42.40
73558;BME280;61829;53.286;10.434;2023-04-19T07:50:30;102674.88;;;12.48;40.62
73558;BME280;61829;53.286;10.434;2023-04-19T07:52:56;102662.25;;;12.39;41.32
73558;BME280;61829;53.286;10.434;2023-04-19T07:55:22;102657.53;;;12.23;42.23
73558;BME280;61829;53.286;10.434;2023-04-19T07:57:48;102672.63;;;12.44;40.98
73558;BME280;61829;53.286;10.434;2023-04-19T08:00:16;102657.00;;;12.38;41.98
73558;BME280;61829;53.286;10.434;2023-04-19T08:02:46;102649.22;;;12.52;41.92
73558;BME280;61829;53.286;10.434;2023-04-19T08:05:13;102677.06;;;12.63;39.48
73558;BME280;61829;53.286;10.434;2023-04-19T08:07:41;102657.34;;;12.70;41.78
73558;BME280;61829;53.286;10.434;2023-04-19T08:10:08;102666.28;;;12.71;39.87
73558;BME280;61829;53.286;10.434;2023-04-19T08:12:34;102660.97;;;12.79;39.75
73558;BME280;61829;53.286;10.434;2023-04-19T08:15:01;102658.09;;;12.98;39.43
73558;BME280;61829;53.286;10.434;2023-04-19T08:17:27;102661.66;;;13.17;39.97
73558;BME280;61829;53.286;10.434;2023-04-19T08:19:53;102663.13;;;13.29;38.96
73558;BME280;61829;53.286;10.434;2023-04-19T08:22:19;102705.59;;;13.29;38.65
73558;BME280;61829;53.286;10.434;2023-04-19T08:24:48;102677.06;;;12.80;37.41
73558;BME280;61829;53.286;10.434;2023-04-19T08:27:14;102675.81;;;12.75;38.23
73558;BME280;61829;53.286;10.434;2023-04-19T08:29:40;102663.91;;;12.68;39.05
73558;BME280;61829;53.286;10.434;2023-04-19T08:32:06;102667.53;;;12.58;38.51
73558;BME280;61829;53.286;10.434;2023-04-19T08:34:35;102665.84;;;12.57;38.33
73558;BME280;61829;53.286;10.434;2023-04-19T08:37:02;102656.56;;;12.78;37.85
73558;BME280;61829;53.286;10.434;2023-04-19T08:39:32;102658.94;;;12.99;37.36
73558;BME280;61829;53.286;10.434;2023-04-19T08:42:08;102653.00;;;12.95;37.32
73558;BME280;61829;53.286;10.434;2023-04-19T08:44:35;102648.75;;;12.93;38.04
73558;BME280;61829;53.286;10.434;2023-04-19T08:47:04;102642.16;;;13.31;38.21
73558;BME280;61829;53.286;10.434;2023-04-19T08:49:34;102648.09;;;13.61;36.97
73558;BME280;61829;53.286;10.434;2023-04-19T08:52:03;102634.22;;;13.64;35.58
73558;BME280;61829;53.286;10.434;2023-04-19T08:54:29;102638.97;;;13.62;36.24
73558;BME280;61829;53.286;10.434;2023-04-19T08:56:58;102639.78;;;13.54;37.56
73558;BME280;61829;53.286;10.434;2023-04-19T08:59:28;102629.56;;;13.74;36.00
73558;BME280;61829;53.286;10.434;2023-04-19T09:01:59;102627.44;;;13.94;35.60
73558;BME280;61829;53.286;10.434;2023-04-19T09:04:26;102628.72;;;14.16;36.00
73558;BME280;61829;53.286;10.434;2023-04-19T09:06:52;102635.00;;;14.17;33.93
73558;BME280;61829;53.286;10.434;2023-04-19T09:09:28;102618.63;;;13.92;33.65
73558;BME280;61829;53.286;10.434;2023-04-19T09:11:54;102638.34;;;13.68;33.26
73558;BME280;61829;53.286;10.434;2023-04-19T09:14:21;102617.97;;;13.64;33.46
73558;BME280;61829;53.286;10.434;2023-04-19T09:16:47;102622.78;;;13.78;33.75
73558;BME280;61829;53.286;10.434;2023-04-19T09:19:13;102647.78;;;13.98;34.67
73558;BME280;61829;53.286;10.434;2023-04-19T09:21:41;102608.63;;;13.92;32.17
73558;BME280;61829;53.286;10.434;2023-04-19T09:24:09;102609.81;;;13.90;33.61
73558;BME280;61829;53.286;10.434;2023-04-19T09:26:35;102606.59;;;13.95;33.71
73558;BME280;61829;53.286;10.434;2023-04-19T09:29:03;102603.16;;;14.19;33.12
73558;BME280;61829;53.286;10.434;2023-04-19T09:31:31;102608.91;;;14.24;33.17
73558;BME280;61829;53.286;10.434;2023-04-19T09:34:11;102607.13;;;13.98;31.04
73558;BME280;61829;53.286;10.434;2023-04-19T09:36:38;102623.25;;;13.65;30.37
73558;BME280;61829;53.286;10.434;2023-04-19T09:39:04;102605.59;;;13.53;32.75
73558;BME280;61829;53.286;10.434;2023-04-19T09:41:30;102625.84;;;13.49;31.50
73558;BME280;61829;53.286;10.434;2023-04-19T09:44:09;102589.94;;;13.21;31.47
73558;BME280;61829;53.286;10.434;2023-04-19T09:46:36;102596.75;;;13.25;32.80
73558;BME280;61829;53.286;10.434;2023-04-19T09:51:52;102590.19;;;13.10;31.18
73558;BME280;61829;53.286;10.434;2023-04-19T09:54:20;102598.56;;;12.98;31.32
73558;BME280;61829;53.286;10.434;2023-04-19T09:56:47;102570.81;;;12.96;31.64
73558;BME280;61829;53.286;10.434;2023-04-19T09:59:14;102577.75;;;13.17;29.61
73558;BME280;61829;53.286;10.434;2023-04-19T10:01:44;102591.34;;;13.07;30.48
73558;BME280;61829;53.286;10.434;2023-04-19T10:04:12;102588.59;;;12.99;29.76
73558;BME280;61829;53.286;10.434;2023-04-19T10:06:39;102563.25;;;13.00;30.92
73558;BME280;61829;53.286;10.434;2023-04-19T10:09:09;102559.00;;;13.23;33.87
73558;BME280;61829;53.286;10.434;2023-04-19T10:11:36;102568.44;;;13.19;29.48
73558;BME280;61829;53.286;10.434;2023-04-19T10:14:10;102547.22;;;13.07;30.55
73558;BME280;61829;53.286;10.434;2023-04-19T10:16:37;102565.44;;;13.04;30.88
73558;BME280;61829;53.286;10.434;2023-04-19T10:19:07;102545.53;;;13.06;30.12
73558;BME280;61829;53.286;10.434;2023-04-19T10:21:34;102523.59;;;13.17;29.19
73558;BME280;61829;53.286;10.434;2023-04-19T10:24:00;102532.38;;;13.37;32.13
73558;BME280;61829;53.286;10.434;2023-04-19T10:26:27;102541.56;;;13.52;31.39
73558;BME280;61829;53.286;10.434;2023-04-19T10:28:55;102530.47;;;13.72;30.68
73558;BME280;61829;53.286;10.434;2023-04-19T10:31:25;102531.63;;;13.61;30.40
73558;BME280;61829;53.286;10.434;2023-04-19T10:33:54;102515.22;;;13.62;31.93
73558;BME280;61829;53.286;10.434;2023-04-19T10:36:21;102524.09;;;13.89;30.35
73558;BME280;61829;53.286;10.434;2023-04-19T10:38:51;102513.06;;;13.82;30.79
73558;BME280;61829;53.286;10.434;2023-04-19T10:41:17;102514.38;;;13.70;29.88
73558;BME280;61829;53.286;10.434;2023-04-19T10:43:46;102515.53;;;13.59;28.42
73558;BME280;61829;53.286;10.434;2023-04-19T10:51:20;102503.50;;;13.54;29.40
73558;BME280;61829;53.286;10.434;2023-04-19T10:59:16;102488.34;;;13.85;30.17
73558;BME280;61829;53.286;10.434;2023-04-19T11:01:57;102498.69;;;13.82;29.69
73558;BME280;61829;53.286;10.434;2023-04-19T11:07:03;102481.75;;;13.88;29.95
73558;BME280;61829;53.286;10.434;2023-04-19T11:12:04;102486.47;;;13.78;29.04
73558;BME280;61829;53.286;10.434;2023-04-19T11:14:35;102480.53;;;13.74;29.66
73558;BME280;61829;53.286;10.434;2023-04-19T11:17:03;102474.47;;;13.88;31.06
73558;BME280;61829;53.286;10.434;2023-04-19T11:19:38;102475.50;;;14.12;31.52
73558;BME280;61829;53.286;10.434;2023-04-19T11:22:03;102481.63;;;14.06;30.87
73558;BME280;61829;53.286;10.434;2023-04-19T11:24:29;102517.34;;;13.93;29.40
73558;BME280;61829;53.286;10.434;2023-04-19T11:26:55;102479.88;;;13.80;30.20
73558;BME280;61829;53.286;10.434;2023-04-19T11:29:22;102468.84;;;13.74;29.93
73558;BME280;61829;53.286;10.434;2023-04-19T11:31:48;102458.16;;;13.64;30.09
73558;BME280;61829;53.286;10.434;2023-04-19T11:34:14;102452.06;;;13.62;29.44
73558;BME280;61829;53.286;10.434;2023-04-19T11:36:47;102468.00;;;13.73;31.11
73558;BME280;61829;53.286;10.434;2023-04-19T11:39:13;102457.28;;;13.55;30.29
73558;BME280;61829;53.286;10.434;2023-04-19T11:41:39;102456.41;;;13.46;31.10
73558;BME280;61829;53.286;10.434;2023-04-19T11:44:16;102450.06;;;13.30;30.84
73558;BME280;61829;53.286;10.434;2023-04-19T11:46:42;102454.53;;;13.47;31.52
73558;BME280;61829;53.286;10.434;2023-04-19T11:49:32;102445.69;;;13.29;31.20
73558;BME280;61829;53.286;10.434;2023-04-19T11:51:59;102444.38;;;13.41;31.19
73558;BME280;61829;53.286;10.434;2023-04-19T11:54:25;102439.16;;;13.56;31.72
73558;BME280;61829;53.286;10.434;2023-04-19T11:57:05;102424.56;;;13.40;31.99
73558;BME280;61829;53.286;10.434;2023-04-19T11:59:32;102439.81;;;13.50;32.11
73558;BME280;61829;53.286;10.434;2023-04-19T12:02:09;102445.78;;;13.53;32.54
73558;BME280;61829;53.286;10.434;2023-04-19T12:04:36;102437.00;;;13.59;32.50
73558;BME280;61829;53.286;10.434;2023-04-19T12:07:04;102434.75;;;13.55;31.81
73558;BME280;61829;53.286;10.434;2023-04-19T12:09:34;102446.28;;;13.57;32.80
73558;BME280;61829;53.286;10.434;2023-04-19T12:12:02;102437.81;;;13.52;32.31
73558;BME280;61829;53.286;10.434;2023-04-19T12:14:28;102432.91;;;13.55;33.41
73558;BME280;61829;53.286;10.434;2023-04-19T12:17:11;102435.03;;;13.35;31.96
73558;BME280;61829;53.286;10.434;2023-04-19T12:19:44;102441.50;;;13.42;32.27
73558;BME280;61829;53.286;10.434;2023-04-19T12:22:15;102427.91;;;13.26;31.88
73558;BME280;61829;53.286;10.434;2023-04-19T12:24:42;102442.56;;;13.58;32.77
73558;BME280;61829;53.286;10.434;2023-04-19T12:27:08;102431.03;;;13.47;31.81
73558;BME280;61829;53.286;10.434;2023-04-19T12:29:35;102438.66;;;13.52;31.81
73558;BME280;61829;53.286;10.434;2023-04-19T12:32:02;102455.75;;;13.53;31.63
73558;BME280;61829;53.286;10.434;2023-04-19T12:34:28;102430.78;;;13.33;32.60
73558;BME280;61829;53.286;10.434;2023-04-19T12:36:55;102423.56;;;13.50;32.28
73558;BME280;61829;53.286;10.434;2023-04-19T12:39:22;102408.41;;;13.65;31.30
73558;BME280;61829;53.286;10.434;2023-04-19T12:41:48;102406.16;;;13.60;31.86
73558;BME280;61829;53.286;10.434;2023-04-19T12:44:14;102414.31;;;13.68;31.13
73558;BME280;61829;53.286;10.434;2023-04-19T12:46:40;102415.97;;;13.61;30.85
73558;BME280;61829;53.286;10.434;2023-04-19T12:49:06;102431.72;;;13.58;30.70
73558;BME280;61829;53.286;10.434;2023-04-19T12:51:32;102416.63;;;13.47;31.39
73558;BME280;61829;53.286;10.434;2023-04-19T12:53:58;102418.13;;;13.41;31.02
73558;BME280;61829;53.286;10.434;2023-04-19T12:56:24;102430.13;;;13.31;31.10
73558;BME280;61829;53.286;10.434;2023-04-19T12:58:51;102411.38;;;13.45;31.94
73558;BME280;61829;53.286;10.434;2023-04-19T13:01:17;102398.34;;;13.41;31.76
73558;BME280;61829;53.286;10.434;2023-04-19T13:03:44;102382.25;;;13.31;32.37
73558;BME280;61829;53.286;10.434;2023-04-19T13:06:10;102390.22;;;13.49;33.25